createdAt,value
2018-10-21T00:01:23.957Z,9.70
2018-10-21T00:03:52.313Z,9.70
2018-10-21T00:06:21.225Z,9.70
2018-10-21T00:08:49.385Z,9.70
2018-10-21T00:11:17.562Z,9.70
2018-10-21T00:13:46.017Z,9.70
2018-10-21T00:16:14.270Z,9.70
2018-10-21T00:18:42.465Z,9.60
2018-10-21T00:21:10.701Z,9.60
2018-10-21T00:23:38.863Z,9.60
2018-10-21T00:26:07.062Z,9.60
2018-10-21T00:28:35.667Z,9.60
2018-10-21T00:31:03.900Z,9.60
2018-10-21T00:33:32.181Z,9.50
2018-10-21T00:36:00.411Z,9.60
2018-10-21T00:38:28.590Z,9.60
2018-10-21T00:40:56.801Z,9.60
2018-10-21T00:43:25.053Z,9.70
2018-10-21T00:45:53.256Z,9.70
2018-10-21T00:48:21.505Z,9.70
2018-10-21T00:50:50.053Z,9.70
2018-10-21T00:53:18.242Z,9.70
2018-10-21T00:55:46.433Z,9.70
2018-10-21T00:58:14.925Z,9.60
2018-10-21T01:00:43.122Z,9.60
2018-10-21T01:03:11.389Z,9.60
2018-10-21T01:05:39.877Z,9.60
2018-10-21T01:08:08.110Z,9.50
2018-10-21T01:10:36.304Z,9.50
2018-10-21T01:13:05.034Z,9.50
2018-10-21T01:15:33.205Z,9.40
2018-10-21T01:18:01.414Z,9.40
2018-10-21T01:20:29.984Z,9.30
2018-10-21T01:22:58.191Z,9.30
2018-10-21T01:25:26.397Z,9.30
2018-10-21T01:27:55.193Z,9.30
2018-10-21T01:30:23.402Z,9.20
2018-10-21T01:32:51.573Z,9.30
2018-10-21T01:35:19.950Z,9.30
2018-10-21T01:37:48.195Z,9.20
2018-10-21T01:40:35.886Z,9.20
2018-10-21T01:43:04.530Z,9.20
2018-10-21T01:45:32.721Z,9.10
2018-10-21T01:48:02.270Z,9.00
2018-10-21T01:50:30.468Z,9.00
2018-10-21T01:53:00.673Z,9.00
2018-10-21T01:55:29.229Z,8.90
2018-10-21T01:57:58.037Z,9.00
2018-10-21T02:00:26.793Z,9.00
2018-10-21T02:02:56.044Z,9.00
2018-10-21T02:05:24.477Z,8.90
2018-10-21T02:07:52.779Z,8.90
2018-10-21T02:10:21.055Z,8.90
2018-10-21T02:12:49.250Z,9.00
2018-10-21T02:15:17.444Z,9.00
2018-10-21T02:17:46.005Z,9.00
2018-10-21T02:20:14.992Z,9.00
2018-10-21T02:22:43.984Z,9.10
2018-10-21T02:25:12.566Z,9.10
2018-10-21T02:27:41.351Z,9.00
2018-10-21T02:30:14.616Z,9.10
2018-10-21T02:32:43.386Z,9.10
2018-10-21T02:35:12.329Z,9.10
2018-10-21T02:37:40.970Z,9.20
2018-10-21T02:42:21.064Z,9.20
2018-10-21T02:44:49.760Z,9.40
2018-10-21T02:47:17.955Z,9.50
2018-10-21T02:49:46.145Z,9.50
2018-10-21T02:52:14.507Z,9.50
2018-10-21T02:54:43.639Z,9.60
2018-10-21T02:57:12.869Z,9.60
2018-10-21T02:59:41.357Z,9.50
2018-10-21T03:02:09.555Z,9.50
2018-10-21T03:04:37.742Z,9.60
2018-10-21T03:07:06.593Z,9.60
2018-10-21T03:09:34.804Z,9.60
2018-10-21T03:12:03.033Z,9.60
2018-10-21T03:14:31.308Z,9.60
2018-10-21T03:16:59.569Z,9.60
2018-10-21T03:19:27.755Z,9.60
2018-10-21T03:21:56.586Z,9.60
2018-10-21T03:24:24.770Z,9.60
2018-10-21T03:26:52.993Z,9.60
2018-10-21T03:29:21.794Z,9.50
2018-10-21T03:31:49.986Z,9.50
2018-10-21T03:34:18.185Z,9.50
2018-10-21T03:36:46.942Z,9.50
2018-10-21T03:39:15.305Z,9.40
2018-10-21T03:41:43.493Z,9.40
2018-10-21T03:44:12.248Z,9.30
2018-10-21T03:46:40.443Z,9.30
2018-10-21T03:49:08.637Z,9.30
2018-10-21T03:51:36.870Z,9.20
2018-10-21T03:54:05.149Z,9.20
2018-10-21T03:56:33.337Z,9.20
2018-10-21T03:59:01.686Z,9.10
2018-10-21T04:01:29.893Z,9.20
2018-10-21T04:03:58.157Z,9.20
2018-10-21T04:06:26.608Z,9.20
2018-10-21T04:08:54.802Z,9.10
2018-10-21T04:11:23.007Z,9.10
2018-10-21T04:13:51.300Z,9.20
2018-10-21T04:16:19.547Z,9.20
2018-10-21T04:18:47.725Z,9.20
2018-10-21T04:21:15.940Z,9.20
2018-10-21T04:23:44.149Z,9.30
2018-10-21T04:26:12.346Z,9.30
2018-10-21T04:28:40.729Z,9.30
2018-10-21T04:31:08.913Z,9.40
2018-10-21T04:33:40.130Z,9.50
2018-10-21T04:36:09.650Z,9.40
2018-10-21T04:40:49.088Z,9.50
2018-10-21T04:43:17.896Z,9.50
2018-10-21T04:45:46.074Z,9.50
2018-10-21T04:48:14.254Z,9.60
2018-10-21T04:50:42.958Z,9.50
2018-10-21T04:53:11.150Z,9.70
2018-10-21T04:55:39.371Z,9.70
2018-10-21T04:58:07.753Z,9.70
2018-10-21T05:00:36.004Z,9.70
2018-10-21T05:03:04.238Z,9.80
2018-10-21T05:05:32.772Z,9.80
2018-10-21T05:08:00.955Z,9.80
2018-10-21T05:10:30.295Z,9.80
2018-10-21T05:12:59.350Z,9.80
2018-10-21T05:15:28.732Z,9.80
2018-10-21T05:17:57.046Z,9.80
2018-10-21T05:20:25.678Z,9.90
2018-10-21T05:22:53.889Z,9.90
2018-10-21T05:25:22.125Z,9.90
2018-10-21T05:27:50.682Z,9.90
2018-10-21T05:30:18.894Z,9.90
2018-10-21T05:32:47.081Z,9.90
2018-10-21T05:35:16.354Z,10.00
2018-10-21T05:37:44.563Z,10.00
2018-10-21T05:40:14.802Z,10.00
2018-10-21T05:42:44.146Z,10.00
2018-10-21T05:45:12.350Z,10.00
2018-10-21T05:47:40.914Z,9.90
2018-10-21T05:50:10.650Z,10.00
2018-10-21T05:52:39.334Z,10.00
2018-10-21T05:55:07.894Z,10.00
2018-10-21T05:57:36.637Z,10.10
2018-10-21T06:00:06.968Z,10.00
2018-10-21T06:02:35.161Z,10.00
2018-10-21T06:05:03.621Z,10.00
2018-10-21T06:07:32.125Z,10.00
2018-10-21T06:10:00.318Z,9.90
2018-10-21T06:12:29.228Z,9.90
2018-10-21T06:14:57.802Z,9.90
2018-10-21T06:17:27.534Z,9.90
2018-10-21T06:20:00.361Z,9.90
2018-10-21T06:22:33.767Z,9.90
2018-10-21T06:25:02.408Z,9.90
2018-10-21T06:27:30.752Z,9.90
2018-10-21T06:29:58.902Z,9.90
2018-10-21T06:32:27.121Z,9.90
2018-10-21T06:34:55.310Z,9.90
2018-10-21T06:37:23.530Z,10.00
2018-10-21T06:39:52.156Z,10.00
2018-10-21T06:42:20.374Z,10.00
2018-10-21T06:44:48.651Z,10.00
2018-10-21T06:47:16.865Z,10.00
2018-10-21T06:49:45.051Z,10.00
2018-10-21T06:52:13.374Z,10.10
2018-10-21T06:54:41.986Z,10.10
2018-10-21T06:57:10.339Z,10.20
2018-10-21T06:59:38.439Z,10.20
2018-10-21T07:02:07.041Z,10.30
2018-10-21T07:04:35.369Z,10.30
2018-10-21T07:07:03.621Z,10.40
2018-10-21T07:09:32.229Z,10.40
2018-10-21T07:12:00.412Z,10.40
2018-10-21T07:14:28.694Z,10.40
2018-10-21T07:16:57.394Z,10.40
2018-10-21T07:19:25.726Z,10.30
2018-10-21T07:21:54.092Z,10.30
2018-10-21T07:24:22.638Z,10.20
2018-10-21T07:26:50.974Z,10.10
2018-10-21T07:29:19.190Z,10.10
2018-10-21T07:31:47.901Z,10.00
2018-10-21T07:34:16.181Z,10.10
2018-10-21T07:36:44.420Z,10.20
2018-10-21T07:39:12.634Z,10.40
2018-10-21T07:41:40.899Z,10.40
2018-10-21T07:44:09.257Z,10.50
2018-10-21T07:46:38.117Z,10.60
2018-10-21T07:49:06.337Z,10.70
2018-10-21T07:51:34.554Z,10.80
2018-10-21T07:54:03.922Z,10.90
2018-10-21T07:56:32.137Z,11.10
2018-10-21T07:59:00.405Z,11.30
2018-10-21T08:01:29.034Z,11.50
2018-10-21T08:03:57.395Z,11.50
2018-10-21T08:06:37.727Z,11.70
2018-10-21T08:09:10.092Z,11.70
2018-10-21T08:11:38.433Z,11.70
2018-10-21T08:14:06.789Z,11.80
2018-10-21T08:16:35.123Z,11.90
2018-10-21T08:19:03.366Z,11.90
2018-10-21T08:21:31.571Z,11.90
2018-10-21T08:23:59.786Z,12.00
2018-10-21T08:26:28.313Z,12.10
2018-10-21T08:28:56.510Z,12.10
2018-10-21T08:31:24.730Z,12.20
2018-10-21T08:33:53.209Z,12.30
2018-10-21T08:36:21.454Z,12.30
2018-10-21T08:38:49.649Z,12.50
2018-10-21T08:41:17.882Z,12.60
2018-10-21T08:43:46.126Z,12.60
2018-10-21T08:46:14.406Z,12.70
2018-10-21T08:48:42.622Z,12.80
2018-10-21T08:51:10.823Z,12.80
2018-10-21T08:53:39.002Z,13.00
2018-10-21T08:56:07.302Z,13.10
2018-10-21T08:58:35.494Z,13.20
2018-10-21T09:01:03.818Z,13.30
2018-10-21T09:03:32.223Z,13.40
2018-10-21T09:06:00.788Z,13.60
2018-10-21T09:08:28.985Z,13.50
2018-10-21T09:10:57.529Z,13.60
2018-10-21T09:13:25.833Z,13.50
2018-10-21T09:15:54.047Z,13.50
2018-10-21T09:18:22.340Z,13.50
2018-10-21T09:20:50.569Z,13.60
2018-10-21T09:23:18.798Z,13.50
2018-10-21T09:25:47.488Z,13.70
2018-10-21T09:28:15.690Z,13.70
2018-10-21T09:30:43.886Z,13.70
2018-10-21T09:33:12.237Z,13.70
2018-10-21T09:35:40.471Z,13.80
2018-10-21T09:38:08.680Z,13.90
2018-10-21T09:40:37.242Z,13.80
2018-10-21T09:43:05.821Z,13.90
2018-10-21T09:45:33.965Z,13.80
2018-10-21T09:48:02.350Z,13.70
2018-10-21T09:50:30.634Z,13.70
2018-10-21T09:52:58.865Z,13.90
2018-10-21T09:55:27.121Z,13.90
2018-10-21T09:57:55.339Z,14.10
2018-10-21T10:00:29.390Z,14.10
2018-10-21T10:03:04.506Z,14.20
2018-10-21T10:05:33.280Z,14.20
2018-10-21T10:08:01.511Z,14.20
2018-10-21T10:10:30.570Z,14.40
2018-10-21T10:12:58.823Z,14.30
2018-10-21T10:15:27.057Z,14.40
2018-10-21T10:17:55.242Z,14.50
2018-10-21T10:20:23.823Z,14.50
2018-10-21T10:22:52.014Z,14.60
2018-10-21T10:25:20.304Z,14.70
2018-10-21T10:27:48.793Z,14.80
2018-10-21T10:30:17.059Z,14.90
2018-10-21T10:32:45.208Z,15.20
2018-10-21T10:35:14.346Z,15.50
2018-10-21T10:37:42.659Z,15.40
2018-10-21T10:40:12.023Z,15.40
2018-10-21T10:42:40.656Z,15.30
2018-10-21T10:45:08.947Z,15.40
2018-10-21T10:47:37.539Z,15.40
2018-10-21T10:50:07.429Z,15.30
2018-10-21T10:52:35.938Z,15.40
2018-10-21T10:55:04.315Z,15.50
2018-10-21T10:57:32.659Z,15.30
2018-10-21T11:00:01.032Z,15.40
2018-10-21T11:02:29.107Z,15.30
2018-10-21T11:04:58.012Z,15.40
2018-10-21T11:07:26.214Z,15.50
2018-10-21T11:09:54.414Z,15.50
2018-10-21T11:12:23.010Z,15.50
2018-10-21T11:14:51.206Z,15.70
2018-10-21T11:17:19.459Z,15.80
2018-10-21T11:19:47.977Z,15.90
2018-10-21T11:22:16.165Z,16.00
2018-10-21T11:24:45.821Z,16.10
2018-10-21T11:27:14.686Z,15.90
2018-10-21T11:29:42.879Z,16.00
2018-10-21T11:32:11.062Z,16.00
2018-10-21T11:34:39.586Z,16.00
2018-10-21T11:37:08.187Z,16.40
2018-10-21T11:39:36.433Z,16.30
2018-10-21T11:42:05.831Z,16.50
2018-10-21T11:44:34.042Z,16.60
2018-10-21T11:47:02.253Z,16.70
2018-10-21T11:49:30.501Z,16.70
2018-10-21T11:51:58.725Z,16.50
2018-10-21T11:54:27.049Z,16.40
2018-10-21T11:56:55.272Z,16.30
2018-10-21T11:59:23.481Z,16.40
2018-10-21T12:01:51.684Z,16.50
2018-10-21T12:04:19.929Z,16.40
2018-10-21T12:06:48.167Z,16.50
2018-10-21T12:09:16.393Z,16.50
2018-10-21T12:11:44.609Z,16.40
2018-10-21T12:14:12.813Z,16.40
2018-10-21T12:16:41.120Z,16.50
2018-10-21T12:19:09.758Z,16.40
2018-10-21T12:21:37.915Z,16.20
2018-10-21T12:24:06.231Z,16.30
2018-10-21T12:26:34.825Z,16.70
2018-10-21T12:29:03.617Z,17.10
2018-10-21T12:31:31.769Z,17.20
2018-10-21T12:34:00.038Z,17.10
2018-10-21T12:36:28.277Z,16.90
2018-10-21T12:38:56.466Z,17.00
2018-10-21T12:41:25.145Z,17.50
2018-10-21T12:43:53.334Z,17.30
2018-10-21T12:46:21.550Z,17.20
2018-10-21T12:48:50.310Z,17.00
2018-10-21T12:51:18.509Z,17.00
2018-10-21T12:53:46.806Z,17.00
2018-10-21T12:56:15.110Z,17.30
2018-10-21T12:58:43.393Z,17.60
2018-10-21T13:01:11.626Z,17.80
2018-10-21T13:03:40.247Z,18.20
2018-10-21T13:06:08.441Z,18.10
2018-10-21T13:08:36.652Z,17.80
2018-10-21T13:11:05.350Z,17.80
2018-10-21T13:13:33.581Z,17.70
2018-10-21T13:16:01.852Z,17.90
2018-10-21T13:18:30.102Z,17.80
2018-10-21T13:20:58.280Z,17.60
2018-10-21T13:23:26.769Z,17.70
2018-10-21T13:25:55.526Z,17.60
2018-10-21T13:28:23.967Z,17.60
2018-10-21T13:30:52.222Z,17.70
2018-10-21T13:33:21.015Z,17.70
2018-10-21T13:35:49.213Z,17.60
2018-10-21T13:38:17.410Z,17.60
2018-10-21T13:40:46.236Z,17.60
2018-10-21T13:43:14.662Z,17.70
2018-10-21T13:45:42.861Z,17.60
2018-10-21T13:48:11.126Z,17.20
2018-10-21T13:50:39.456Z,17.30
2018-10-21T13:53:07.745Z,17.10
2018-10-21T13:55:36.235Z,16.90
2018-10-21T13:58:04.557Z,16.90
2018-10-21T14:00:32.764Z,16.80
2018-10-21T14:03:01.235Z,16.80
2018-10-21T14:05:29.437Z,16.70
2018-10-21T14:07:57.654Z,16.80
2018-10-21T14:10:26.062Z,16.70
2018-10-21T14:12:54.287Z,16.60
2018-10-21T14:15:22.593Z,16.70
2018-10-21T14:17:51.494Z,16.80
2018-10-21T14:20:19.750Z,16.80
2018-10-21T14:22:48.010Z,16.80
2018-10-21T14:25:16.237Z,16.80
2018-10-21T14:27:44.524Z,16.70
2018-10-21T14:30:12.768Z,16.60
2018-10-21T14:32:40.945Z,16.60
2018-10-21T14:35:09.974Z,16.60
2018-10-21T14:37:38.610Z,16.70
2018-10-21T14:40:08.598Z,16.70
2018-10-21T14:42:36.800Z,16.70
2018-10-21T14:45:06.314Z,16.80
2018-10-21T14:47:34.539Z,16.70
2018-10-21T14:50:02.739Z,16.80
2018-10-21T14:52:30.962Z,16.80
2018-10-21T14:54:59.781Z,16.70
2018-10-21T14:57:27.953Z,16.80
2018-10-21T14:59:56.397Z,16.70
2018-10-21T15:02:24.634Z,16.60
2018-10-21T15:04:52.833Z,16.70
2018-10-21T15:07:21.026Z,16.60
2018-10-21T15:09:49.758Z,16.70
2018-10-21T15:12:17.948Z,16.80
2018-10-21T15:14:46.096Z,16.70
2018-10-21T15:17:14.317Z,16.60
2018-10-21T15:19:42.536Z,16.60
2018-10-21T15:22:10.820Z,16.60
2018-10-21T15:24:38.967Z,16.60
2018-10-21T15:27:07.137Z,16.50
2018-10-21T15:29:35.337Z,16.50
2018-10-21T15:32:03.593Z,16.40
2018-10-21T15:34:31.829Z,16.50
2018-10-21T15:37:00.030Z,16.50
2018-10-21T15:39:28.652Z,16.50
2018-10-21T15:41:56.822Z,16.50
2018-10-21T15:44:25.031Z,16.40
2018-10-21T15:46:53.248Z,16.40
2018-10-21T15:49:21.434Z,16.30
2018-10-21T15:51:49.652Z,16.30
2018-10-21T15:54:18.233Z,16.30
2018-10-21T15:56:46.705Z,16.20
2018-10-21T15:59:14.914Z,16.20
2018-10-21T16:01:43.539Z,16.20
2018-10-21T16:04:11.764Z,16.10
2018-10-21T16:06:39.945Z,16.10
2018-10-21T16:09:10.600Z,16.10
2018-10-21T16:11:38.786Z,16.00
2018-10-21T16:14:07.092Z,16.00
2018-10-21T16:16:35.572Z,16.00
2018-10-21T16:19:03.866Z,16.00
2018-10-21T16:21:32.069Z,16.00
2018-10-21T16:24:00.774Z,15.90
2018-10-21T16:26:29.057Z,15.90
2018-10-21T16:28:57.363Z,15.90
2018-10-21T16:31:25.926Z,15.80
2018-10-21T16:33:54.143Z,15.70
2018-10-21T16:36:22.382Z,15.80
2018-10-21T16:38:50.979Z,15.70
2018-10-21T16:41:20.396Z,15.70
2018-10-21T16:43:48.607Z,15.70
2018-10-21T16:46:16.870Z,15.70
2018-10-21T16:48:45.062Z,15.60
2018-10-21T16:51:13.311Z,15.60
2018-10-21T16:53:41.950Z,15.60
2018-10-21T16:56:10.185Z,15.60
2018-10-21T16:58:38.496Z,15.50
2018-10-21T17:01:07.036Z,15.50
2018-10-21T17:03:35.332Z,15.40
2018-10-21T17:06:03.518Z,15.40
2018-10-21T17:08:31.729Z,15.40
2018-10-21T17:11:00.002Z,15.40
2018-10-21T17:13:28.162Z,15.30
2018-10-21T17:15:56.673Z,15.30
2018-10-21T17:18:25.057Z,15.30
2018-10-21T17:20:53.291Z,15.30
2018-10-21T17:23:21.510Z,15.20
2018-10-21T17:25:49.710Z,15.20
2018-10-21T17:28:17.970Z,15.20
2018-10-21T17:30:46.915Z,15.20
2018-10-21T17:33:14.939Z,15.20
2018-10-21T17:35:43.129Z,15.10
2018-10-21T17:38:11.861Z,15.10
2018-10-21T17:40:40.156Z,15.10
2018-10-21T17:43:08.315Z,15.10
2018-10-21T17:45:36.568Z,15.10
2018-10-21T17:48:05.204Z,15.10
2018-10-21T17:50:33.419Z,15.10
2018-10-21T17:53:04.194Z,15.10
2018-10-21T17:55:32.381Z,15.10
2018-10-21T17:58:00.657Z,15.10
2018-10-21T18:00:28.862Z,15.00
2018-10-21T18:02:57.122Z,15.00
2018-10-21T18:05:25.405Z,15.10
2018-10-21T18:07:53.807Z,15.10
2018-10-21T18:10:22.022Z,15.00
2018-10-21T18:12:50.325Z,15.00
2018-10-21T18:15:19.229Z,14.90
2018-10-21T18:17:47.497Z,14.90
2018-10-21T18:20:15.736Z,14.90
2018-10-21T18:22:44.087Z,14.90
2018-10-21T18:25:12.442Z,14.90
2018-10-21T18:27:41.028Z,14.80
2018-10-21T18:30:10.890Z,14.80
2018-10-21T18:32:39.205Z,14.80
2018-10-21T18:35:08.606Z,14.70
2018-10-21T18:37:36.893Z,14.70
2018-10-21T18:40:06.286Z,14.60
2018-10-21T18:42:34.467Z,14.60
2018-10-21T18:45:02.798Z,14.50
2018-10-21T18:47:31.090Z,14.50
2018-10-21T18:49:59.346Z,14.40
2018-10-21T18:52:28.414Z,14.40
2018-10-21T18:54:56.720Z,14.30
2018-10-21T18:57:24.958Z,14.30
2018-10-21T18:59:53.597Z,14.30
2018-10-21T19:02:21.841Z,14.30
2018-10-21T19:04:50.111Z,14.30
2018-10-21T19:07:18.422Z,14.20
2018-10-21T19:09:47.241Z,14.20
2018-10-21T19:12:15.455Z,14.30
2018-10-21T19:14:44.801Z,14.30
2018-10-21T19:17:13.007Z,14.30
2018-10-21T19:19:41.254Z,14.30
2018-10-21T19:22:09.529Z,14.30
2018-10-21T19:24:37.697Z,14.30
2018-10-21T19:27:06.574Z,14.30
2018-10-21T19:29:35.346Z,14.30
2018-10-21T19:32:03.561Z,14.30
2018-10-21T19:34:31.790Z,14.30
2018-10-21T19:37:00.472Z,14.30
2018-10-21T19:39:28.770Z,14.30
2018-10-21T19:41:57.010Z,14.40
2018-10-21T19:44:25.582Z,14.40
2018-10-21T19:46:54.446Z,14.40
2018-10-21T19:49:22.669Z,14.40
2018-10-21T19:51:51.551Z,14.50
2018-10-21T19:54:19.765Z,14.50
2018-10-21T19:56:48.002Z,14.50
2018-10-21T19:59:17.017Z,14.50
2018-10-21T20:01:45.273Z,14.50
2018-10-21T20:04:13.688Z,14.50
2018-10-21T20:06:41.917Z,14.50
2018-10-21T20:09:10.841Z,14.50
2018-10-21T20:11:39.978Z,14.50
2018-10-21T20:14:08.233Z,14.50
2018-10-21T20:16:36.422Z,14.50
2018-10-21T20:19:05.374Z,14.50
2018-10-21T20:21:34.429Z,14.50
2018-10-21T20:24:02.744Z,14.50
2018-10-21T20:26:30.974Z,14.50
2018-10-21T20:28:59.358Z,14.50
2018-10-21T20:31:27.595Z,14.40
2018-10-21T20:33:55.901Z,14.40
2018-10-21T20:36:24.117Z,14.40
2018-10-21T20:38:52.322Z,14.40
2018-10-21T20:41:20.574Z,14.40
2018-10-21T20:43:48.838Z,14.40
2018-10-21T20:46:17.098Z,14.40
2018-10-21T20:48:45.282Z,14.40
2018-10-21T20:51:13.507Z,14.30
2018-10-21T20:53:41.694Z,14.40
2018-10-21T20:56:09.885Z,14.40
2018-10-21T20:58:38.265Z,14.40
2018-10-21T21:01:06.630Z,14.30
2018-10-21T21:03:34.850Z,14.30
2018-10-21T21:06:03.095Z,14.30
2018-10-21T21:08:31.295Z,14.30
2018-10-21T21:10:59.590Z,14.30
2018-10-21T21:13:28.318Z,14.30
2018-10-21T21:15:56.578Z,14.20
2018-10-21T21:18:24.758Z,14.20
2018-10-21T21:20:53.045Z,14.20
2018-10-21T21:23:21.242Z,14.20
2018-10-21T21:25:49.431Z,14.20
2018-10-21T21:28:18.059Z,14.20
2018-10-21T21:30:46.367Z,14.20
2018-10-21T21:33:14.469Z,14.10
2018-10-21T21:35:43.409Z,14.20
2018-10-21T21:38:11.854Z,14.20
2018-10-21T21:40:40.045Z,14.20
2018-10-21T21:43:08.747Z,14.20
2018-10-21T21:45:36.985Z,14.20
2018-10-21T21:48:05.336Z,14.20
2018-10-21T21:50:33.850Z,14.20
2018-10-21T21:53:02.070Z,14.20
2018-10-21T21:55:30.259Z,14.20
2018-10-21T21:57:58.838Z,14.20
2018-10-21T22:00:27.040Z,14.10
2018-10-21T22:02:55.236Z,14.10
2018-10-21T22:05:23.822Z,14.10
2018-10-21T22:07:52.038Z,14.10
2018-10-21T22:10:20.307Z,14.10
2018-10-21T22:12:48.571Z,14.20
2018-10-21T22:15:16.780Z,14.20
2018-10-21T22:17:44.986Z,14.10
2018-10-21T22:20:13.749Z,14.10
2018-10-21T22:22:42.272Z,14.10
2018-10-21T22:25:10.861Z,14.10
2018-10-21T22:27:39.161Z,14.10
2018-10-21T22:30:08.691Z,14.10
2018-10-21T22:32:36.926Z,14.00
2018-10-21T22:35:06.099Z,13.90
2018-10-21T22:37:34.314Z,14.00
2018-10-21T22:40:02.563Z,14.00
2018-10-21T22:42:31.042Z,14.00
2018-10-21T22:44:59.245Z,14.00
2018-10-21T22:47:27.529Z,14.00
2018-10-21T22:49:56.019Z,14.00
2018-10-21T22:52:24.213Z,14.00
2018-10-21T22:54:52.408Z,14.00
2018-10-21T22:57:20.659Z,14.00
2018-10-21T22:59:49.849Z,14.00
2018-10-21T23:02:18.090Z,14.00
2018-10-21T23:04:47.287Z,14.00
2018-10-21T23:07:15.534Z,14.00
2018-10-21T23:09:43.735Z,13.90
2018-10-21T23:12:12.075Z,13.90
2018-10-21T23:14:40.254Z,13.80
2018-10-21T23:17:08.437Z,13.80
2018-10-21T23:19:42.421Z,13.70
2018-10-21T23:22:10.689Z,13.70
2018-10-21T23:24:39.359Z,13.60
2018-10-21T23:27:08.137Z,13.60
2018-10-21T23:29:36.321Z,13.50
2018-10-21T23:32:04.545Z,13.40
2018-10-21T23:34:33.252Z,13.40
2018-10-21T23:37:01.454Z,13.40
2018-10-21T23:39:29.758Z,13.40
2018-10-21T23:41:59.343Z,13.30
2018-10-21T23:44:27.556Z,13.30
2018-10-21T23:46:55.761Z,13.30
2018-10-21T23:49:24.122Z,13.20
2018-10-21T23:51:52.379Z,13.20
2018-10-21T23:54:20.583Z,13.20
2018-10-21T23:56:48.782Z,13.10
2018-10-21T23:59:16.986Z,13.00
